Mission Field Livingston US
ICAO: KLVM
IATA: LVM
Category: Medium
Scheduled Services: No

Elevation: 4660 ft
TransAlt. 18000 ft.

Airport Communications:
ASOS:135.275
GREAT FALLS RDO:122.2
CTAF/UNICOM:123

KLVM Zoom In..

Runways:

(A) RW 04 length 5701 ft width 75 ft
---- / hdg 39

(B) RW 08 length 3762 ft width 125 ft
---- / hdg 78

(C) RW 13 length 2724 ft width 120 ft
---- / hdg 132

(D) RW 22 length 5701 ft width 75 ft
---- / hdg 219

(E) RW 26 length 3762 ft width 125 ft
---- / hdg 258

(F) RW 31 length 2724 ft width 120 ft
---- / hdg 312

Location; KLVM
Day. 22 / Time. 21.53 Zulu
* Altimeter: 29.74
* Temperature: 12° c. 53.6°f.
* Wind from: 340° Speed 17 kn with Gusts up to 24 kn.
Dewpoint: 00° c.
Visibility: 10 Statute Miles.
Clouds: Broken 1000 ft.

KLVM 222153Z AUTO 34017G24KT 10SM BKN100 12/00 A2974 RMK AO2 SLP080 T01220000

Going to: --> -->


Wind From 340°
Speed 17 kn.

 
 
jpsmedia worldairports.se 2021   terms of use